Hauptseite
METAR-TAF:

METAR-TAF

Flughäfen :

Blackpool Airport

Blackpool, England

Breite: 53-46N, Länge: 003-02W, Höhe: 10 m

Beobachtung

Neuester Wetterbericht von vor 45 Minuten, um 13:20 UTC
Wind 9 kt aus Nord/Nordwest
Temperatur 17°C
Luftfeuchtigkeit 63%
Luftdruck 1037 hPa
Sichtweite 10 km oder mehr
Leicht bewölkt in der Höhe von 4000 ft

METAR: EGNH 271320Z 34009KT 9999 FEW040 17/10 Q1037

Zeit: 15:05 (14:05 UTC)

Prognose

Neuester Wetterbericht von vor 5 Stunden und 58 Minuten, um 08:07 UTC
Gültige Prognose vom 27 um 09 UTC bis 27 um 18 UTC
Wind 3 kt aus unterschiedlichen Richtungen
Sichtweite 10 km oder mehr
keine Wolken unter 1500 m und keine Kumulonimbus oder Gewitterwolken
Übergehend zu
vom 27 um 09 UTC bis 27 um 12 UTC
Wind 10 kt aus Nordwest

TAF: EGNH 270807Z 2709/2718 VRB03KT CAVOK BECMG 2709/2712 32010KT

Wetterbeobachtungen und Prognosen von mehr als 4000 Flughäfen (METAR und TAF Bericht).

Die verfügbaren Stationen werden durch gelbe und rote Markierungen auf der Karte dargestellt.

Führen Sie die Maus auf sie, um den Namen der Station zu sehen.

Darauf klicken, um die Beobachtung von Wetterbeobachtungen und Prognosen zu sehen.

Um die Karte zu ändern : klicken Sie auf den grünen Tasten mit einem schwarzen Kreuz Zum Vergrößern, auf den grünen Button mit einem Gedankenstrich zu verkleinern, oder auf die grünen Pfeile für benachbarte Karten.


METAR-TAF: